sensor_id;sensor_type;location;lat;lon;timestamp;temperature;humidity
23769;DHT22;12064;50.890;5.424;2022-07-21T00:00:05;31.10;68.70
23769;DHT22;12064;50.890;5.424;2022-07-21T00:08:57;31.10;68.80
23769;DHT22;12064;50.890;5.424;2022-07-21T00:17:49;31.10;68.70
23769;DHT22;12064;50.890;5.424;2022-07-21T00:26:43;31.20;68.80
23769;DHT22;12064;50.890;5.424;2022-07-21T00:35:34;31.10;68.60
23769;DHT22;12064;50.890;5.424;2022-07-21T00:44:26;31.10;68.80
23769;DHT22;12064;50.890;5.424;2022-07-21T00:53:19;31.10;68.60
23769;DHT22;12064;50.890;5.424;2022-07-21T01:02:10;31.10;68.20
23769;DHT22;12064;50.890;5.424;2022-07-21T01:11:01;31.10;68.20
23769;DHT22;12064;50.890;5.424;2022-07-21T01:19:52;31.10;68.30
23769;DHT22;12064;50.890;5.424;2022-07-21T01:28:42;31.00;68.40
23769;DHT22;12064;50.890;5.424;2022-07-21T01:37:38;31.10;68.10
23769;DHT22;12064;50.890;5.424;2022-07-21T01:46:32;31.00;68.10
23769;DHT22;12064;50.890;5.424;2022-07-21T01:55:25;31.00;68.30
23769;DHT22;12064;50.890;5.424;2022-07-21T02:04:17;31.00;68.10
23769;DHT22;12064;50.890;5.424;2022-07-21T02:13:08;31.10;68.00
23769;DHT22;12064;50.890;5.424;2022-07-21T02:21:59;31.00;68.00
23769;DHT22;12064;50.890;5.424;2022-07-21T02:30:53;31.10;68.00
23769;DHT22;12064;50.890;5.424;2022-07-21T02:39:49;31.00;67.90
23769;DHT22;12064;50.890;5.424;2022-07-21T02:48:43;31.10;67.90
23769;DHT22;12064;50.890;5.424;2022-07-21T02:57:35;31.00;68.10
23769;DHT22;12064;50.890;5.424;2022-07-21T03:06:28;31.00;67.90
23769;DHT22;12064;50.890;5.424;2022-07-21T03:15:24;31.00;67.80
23769;DHT22;12064;50.890;5.424;2022-07-21T03:24:17;31.00;67.90
23769;DHT22;12064;50.890;5.424;2022-07-21T03:33:08;31.10;68.00
23769;DHT22;12064;50.890;5.424;2022-07-21T03:42:10;31.10;67.90
23769;DHT22;12064;50.890;5.424;2022-07-21T03:51:06;30.90;68.10
23769;DHT22;12064;50.890;5.424;2022-07-21T03:59:57;30.90;68.00
23769;DHT22;12064;50.890;5.424;2022-07-21T04:08:49;31.00;68.00
23769;DHT22;12064;50.890;5.424;2022-07-21T04:17:40;30.50;69.20
23769;DHT22;12064;50.890;5.424;2022-07-21T04:26:33;30.80;69.20
23769;DHT22;12064;50.890;5.424;2022-07-21T04:35:24;31.30;68.50
23769;DHT22;12064;50.890;5.424;2022-07-21T04:44:16;31.40;68.60
23769;DHT22;12064;50.890;5.424;2022-07-21T04:53:06;31.40;69.50
23769;DHT22;12064;50.890;5.424;2022-07-21T05:01:59;31.50;68.80
23769;DHT22;12064;50.890;5.424;2022-07-21T05:10:53;31.70;68.40
23769;DHT22;12064;50.890;5.424;2022-07-21T05:19:43;31.70;68.80
23769;DHT22;12064;50.890;5.424;2022-07-21T05:28:35;32.00;68.10
23769;DHT22;12064;50.890;5.424;2022-07-21T05:37:26;32.00;68.60
23769;DHT22;12064;50.890;5.424;2022-07-21T05:46:20;30.80;68.90
23769;DHT22;12064;50.890;5.424;2022-07-21T05:55:15;30.40;70.40
23769;DHT22;12064;50.890;5.424;2022-07-21T06:04:06;30.30;70.50
23769;DHT22;12064;50.890;5.424;2022-07-21T06:12:59;29.80;71.00
23769;DHT22;12064;50.890;5.424;2022-07-21T06:21:50;30.00;70.70
23769;DHT22;12064;50.890;5.424;2022-07-21T06:30:42;29.60;70.80
23769;DHT22;12064;50.890;5.424;2022-07-21T06:39:32;29.40;71.00
23769;DHT22;12064;50.890;5.424;2022-07-21T06:48:24;29.40;70.70
23769;DHT22;12064;50.890;5.424;2022-07-21T06:57:15;29.50;70.60
23769;DHT22;12064;50.890;5.424;2022-07-21T07:15:34;29.40;71.80
23769;DHT22;12064;50.890;5.424;2022-07-21T07:24:24;29.50;71.10
23769;DHT22;12064;50.890;5.424;2022-07-21T07:33:49;29.30;72.50
23769;DHT22;12064;50.890;5.424;2022-07-21T07:42:44;29.50;72.70
23769;DHT22;12064;50.890;5.424;2022-07-21T07:51:34;29.50;71.70
23769;DHT22;12064;50.890;5.424;2022-07-21T08:00:25;29.60;71.90
23769;DHT22;12064;50.890;5.424;2022-07-21T08:09:16;29.60;72.70
23769;DHT22;12064;50.890;5.424;2022-07-21T08:18:08;29.70;73.70
23769;DHT22;12064;50.890;5.424;2022-07-21T08:26:59;29.40;75.40
23769;DHT22;12064;50.890;5.424;2022-07-21T08:35:50;29.50;75.10
23769;DHT22;12064;50.890;5.424;2022-07-21T08:44:42;29.40;75.10
23769;DHT22;12064;50.890;5.424;2022-07-21T08:53:49;29.30;75.20
23769;DHT22;12064;50.890;5.424;2022-07-21T09:02:43;29.10;75.90
23769;DHT22;12064;50.890;5.424;2022-07-21T09:11:43;29.30;75.50
23769;DHT22;12064;50.890;5.424;2022-07-21T09:20:35;29.50;75.60
23769;DHT22;12064;50.890;5.424;2022-07-21T09:29:27;29.30;76.20
23769;DHT22;12064;50.890;5.424;2022-07-21T09:38:24;29.40;76.40
23769;DHT22;12064;50.890;5.424;2022-07-21T09:47:17;29.30;76.90
23769;DHT22;12064;50.890;5.424;2022-07-21T10:15:10;29.10;77.70
23769;DHT22;12064;50.890;5.424;2022-07-21T10:24:00;29.10;77.30
23769;DHT22;12064;50.890;5.424;2022-07-21T10:33:03;29.20;77.30
23769;DHT22;12064;50.890;5.424;2022-07-21T10:42:16;29.10;77.70
23769;DHT22;12064;50.890;5.424;2022-07-21T10:51:26;29.00;77.90
23769;DHT22;12064;50.890;5.424;2022-07-21T11:09:14;29.00;78.50
23769;DHT22;12064;50.890;5.424;2022-07-21T11:18:07;29.00;77.40
23769;DHT22;12064;50.890;5.424;2022-07-21T11:27:05;28.80;77.20
23769;DHT22;12064;50.890;5.424;2022-07-21T11:35:56;28.70;77.60
23769;DHT22;12064;50.890;5.424;2022-07-21T11:44:47;29.00;76.50
23769;DHT22;12064;50.890;5.424;2022-07-21T11:53:47;29.00;76.00
23769;DHT22;12064;50.890;5.424;2022-07-21T12:02:37;28.80;76.30
23769;DHT22;12064;50.890;5.424;2022-07-21T12:11:35;29.00;76.20
23769;DHT22;12064;50.890;5.424;2022-07-21T12:20:39;28.90;77.20
23769;DHT22;12064;50.890;5.424;2022-07-21T12:29:38;28.90;76.00
23769;DHT22;12064;50.890;5.424;2022-07-21T12:38:42;29.00;75.00
23769;DHT22;12064;50.890;5.424;2022-07-21T12:47:35;28.80;74.90
23769;DHT22;12064;50.890;5.424;2022-07-21T12:56:29;28.80;74.70
23769;DHT22;12064;50.890;5.424;2022-07-21T13:05:21;28.80;74.60
23769;DHT22;12064;50.890;5.424;2022-07-21T13:14:12;28.50;76.00
23769;DHT22;12064;50.890;5.424;2022-07-21T13:23:03;28.50;77.40
23769;DHT22;12064;50.890;5.424;2022-07-21T13:31:54;28.60;76.30
23769;DHT22;12064;50.890;5.424;2022-07-21T13:40:44;28.70;76.00
23769;DHT22;12064;50.890;5.424;2022-07-21T13:49:38;28.70;76.00
23769;DHT22;12064;50.890;5.424;2022-07-21T13:58:28;28.60;75.70
23769;DHT22;12064;50.890;5.424;2022-07-21T14:07:19;28.60;75.80
23769;DHT22;12064;50.890;5.424;2022-07-21T14:16:10;28.40;76.10
23769;DHT22;12064;50.890;5.424;2022-07-21T14:25:01;28.40;77.50
23769;DHT22;12064;50.890;5.424;2022-07-21T14:34:10;28.40;77.80
23769;DHT22;12064;50.890;5.424;2022-07-21T14:43:03;28.60;77.50
23769;DHT22;12064;50.890;5.424;2022-07-21T14:51:54;28.50;77.20
23769;DHT22;12064;50.890;5.424;2022-07-21T15:00:45;28.40;77.70
23769;DHT22;12064;50.890;5.424;2022-07-21T15:09:36;28.50;77.90
23769;DHT22;12064;50.890;5.424;2022-07-21T15:18:31;28.40;77.80
23769;DHT22;12064;50.890;5.424;2022-07-21T15:27:22;28.30;77.70
23769;DHT22;12064;50.890;5.424;2022-07-21T15:36:13;28.30;77.70
23769;DHT22;12064;50.890;5.424;2022-07-21T15:45:04;28.30;77.90
23769;DHT22;12064;50.890;5.424;2022-07-21T15:54:03;28.30;77.20
23769;DHT22;12064;50.890;5.424;2022-07-21T16:03:00;28.20;77.10
23769;DHT22;12064;50.890;5.424;2022-07-21T16:12:11;28.30;76.70
23769;DHT22;12064;50.890;5.424;2022-07-21T16:21:05;28.20;77.00
23769;DHT22;12064;50.890;5.424;2022-07-21T16:29:59;28.30;76.50
23769;DHT22;12064;50.890;5.424;2022-07-21T16:38:49;28.30;76.40
23769;DHT22;12064;50.890;5.424;2022-07-21T16:47:45;28.60;74.70
23769;DHT22;12064;50.890;5.424;2022-07-21T16:56:39;28.50;74.20
23769;DHT22;12064;50.890;5.424;2022-07-21T17:05:30;28.60;73.40
23769;DHT22;12064;50.890;5.424;2022-07-21T17:14:21;28.40;73.40
23769;DHT22;12064;50.890;5.424;2022-07-21T17:23:11;28.30;73.70
23769;DHT22;12064;50.890;5.424;2022-07-21T17:32:02;28.50;73.30
23769;DHT22;12064;50.890;5.424;2022-07-21T17:40:54;28.40;73.10
23769;DHT22;12064;50.890;5.424;2022-07-21T17:49:52;28.20;73.70
23769;DHT22;12064;50.890;5.424;2022-07-21T17:58:43;28.20;73.50
23769;DHT22;12064;50.890;5.424;2022-07-21T18:07:34;28.30;72.90
23769;DHT22;12064;50.890;5.424;2022-07-21T18:16:26;28.10;73.20
23769;DHT22;12064;50.890;5.424;2022-07-21T18:25:17;28.10;72.70
23769;DHT22;12064;50.890;5.424;2022-07-21T18:34:15;28.10;72.70
23769;DHT22;12064;50.890;5.424;2022-07-21T18:43:06;28.00;72.50
23769;DHT22;12064;50.890;5.424;2022-07-21T18:52:00;28.00;73.10
23769;DHT22;12064;50.890;5.424;2022-07-21T19:00:52;28.10;73.00
23769;DHT22;12064;50.890;5.424;2022-07-21T19:09:42;28.00;73.00
23769;DHT22;12064;50.890;5.424;2022-07-21T19:18:33;28.00;73.70
23769;DHT22;12064;50.890;5.424;2022-07-21T19:27:27;27.90;73.60
23769;DHT22;12064;50.890;5.424;2022-07-21T19:36:20;27.80;73.60
23769;DHT22;12064;50.890;5.424;2022-07-21T19:45:12;28.00;73.50
23769;DHT22;12064;50.890;5.424;2022-07-21T19:54:17;27.90;74.70
23769;DHT22;12064;50.890;5.424;2022-07-21T20:03:08;27.90;73.80
23769;DHT22;12064;50.890;5.424;2022-07-21T20:11:58;27.70;74.40
23769;DHT22;12064;50.890;5.424;2022-07-21T20:20:49;27.50;74.80
23769;DHT22;12064;50.890;5.424;2022-07-21T20:29:41;27.50;74.70
23769;DHT22;12064;50.890;5.424;2022-07-21T20:38:54;28.20;72.30
23769;DHT22;12064;50.890;5.424;2022-07-21T20:47:47;28.00;72.70
23769;DHT22;12064;50.890;5.424;2022-07-21T20:56:39;28.00;72.80
23769;DHT22;12064;50.890;5.424;2022-07-21T21:05:29;28.10;72.30
23769;DHT22;12064;50.890;5.424;2022-07-21T21:14:44;28.10;72.50
23769;DHT22;12064;50.890;5.424;2022-07-21T21:23:35;28.20;72.40
23769;DHT22;12064;50.890;5.424;2022-07-21T21:32:26;28.10;72.60
23769;DHT22;12064;50.890;5.424;2022-07-21T21:41:16;28.20;72.20
23769;DHT22;12064;50.890;5.424;2022-07-21T21:50:10;28.10;72.40
23769;DHT22;12064;50.890;5.424;2022-07-21T21:59:03;28.20;71.90
23769;DHT22;12064;50.890;5.424;2022-07-21T22:07:54;28.20;71.60
23769;DHT22;12064;50.890;5.424;2022-07-21T22:16:45;28.10;72.00
23769;DHT22;12064;50.890;5.424;2022-07-21T22:25:36;28.10;72.00
23769;DHT22;12064;50.890;5.424;2022-07-21T22:34:27;28.00;72.10
23769;DHT22;12064;50.890;5.424;2022-07-21T22:43:20;28.00;72.00
23769;DHT22;12064;50.890;5.424;2022-07-21T22:52:10;28.10;71.80
23769;DHT22;12064;50.890;5.424;2022-07-21T23:01:04;28.30;71.30
23769;DHT22;12064;50.890;5.424;2022-07-21T23:09:56;28.10;71.60
23769;DHT22;12064;50.890;5.424;2022-07-21T23:18:46;28.00;71.80
23769;DHT22;12064;50.890;5.424;2022-07-21T23:27:37;28.00;72.00
23769;DHT22;12064;50.890;5.424;2022-07-21T23:36:28;28.00;71.90
23769;DHT22;12064;50.890;5.424;2022-07-21T23:45:24;28.10;71.60
23769;DHT22;12064;50.890;5.424;2022-07-21T23:54:15;27.90;71.80
